Date,TemperatureHighF,TemperatureAvgF,TemperatureLowF,DewpointHighF,DewpointAvgF,DewpointLowF,HumidityHigh,HumidityAvg,HumidityLow,PressureMaxIn,PressureMinIn,WindSpeedMaxMPH,WindSpeedAvgMPH,GustSpeedMaxMPH,PrecipitationSumIn
2013-1-1,54,47,36,43,38,31,83,73,57,30.18,30.12,4,1,4,0.00
2013-1-2,52,50,47,47,45,43,88,84,76,30.31,30.10,14,4,14,0.36
2013-1-3,60,54,50,45,43,41,77,68,57,30.51,30.30,21,9,21,0.01
2013-1-4,58,50,44,45,41,38,81,72,59,30.50,30.31,16,6,16,0.00
2013-1-5,54,50,44,45,43,39,87,77,69,30.18,30.10,13,2,13,0.00
2013-1-6,59,52,48,48,42,38,87,69,50,30.22,30.10,22,6,22,0.00
2013-1-7,62,53,47,46,41,34,88,66,36,30.26,30.07,22,7,22,0.00
2013-1-8,58,51,46,41,37,33,78,59,44,30.31,30.23,14,5,14,0.00
2013-1-9,58,51,46,44,42,39,79,71,59,30.23,30.14,12,2,12,0.00
2013-1-10,56,52,49,48,45,42,88,79,68,30.15,29.83,12,2,12,0.02
2013-1-11,56,50,44,49,45,40,91,82,66,29.87,29.75,30,5,30,0.23
2013-1-12,57,48,41,45,42,37,88,80,61,30.08,29.83,10,3,10,0.04
2013-1-13,56,50,47,51,46,42,89,84,71,30.07,29.87,26,6,26,0.16
2013-1-14,56,52,46,50,47,43,90,83,73,29.97,29.83,23,7,23,0.48
2013-1-15,54,49,43,45,42,39,89,78,60,29.96,29.67,9,2,9,0.02
2013-1-16,49,44,39,43,38,34,87,80,61,29.67,29.50,33,7,33,0.65
2013-1-17,53,45,39,46,40,36,90,82,63,29.54,29.34,20,7,20,0.75
2013-1-18,47,41,36,37,35,33,90,81,66,29.62,29.32,18,2,18,0.11
2013-1-19,50,42,35,46,37,31,88,83,69,29.70,29.61,12,4,12,0.03
2013-1-20,62,56,50,54,52,46,91,84,71,29.61,29.48,21,6,21,0.41
2013-1-21,55,51,48,50,46,40,92,86,66,29.59,29.37,32,7,32,0.77
2013-1-22,54,48,44,46,42,38,91,82,55,29.84,29.58,39,8,39,0.17
2013-1-23,52,44,41,47,40,38,90,86,77,29.85,29.62,29,8,29,1.08
2013-1-24,53,46,43,43,42,39,89,83,67,29.62,29.39,14,5,14,0.34
2013-1-25,54,48,44,41,37,30,88,68,53,29.63,29.43,33,10,33,0.00
2013-1-26,49,45,40,36,31,29,71,60,51,29.86,29.62,21,6,21,0.00
2013-1-27,53,45,40,36,32,28,80,60,44,30.01,29.86,15,6,15,0.00
2013-1-28,50,45,39,41,38,34,84,77,61,30.04,29.88,23,6,23,0.08
2013-1-29,59,51,45,42,39,35,84,64,47,30.24,30.04,31,8,31,0.00
2013-1-30,59,49,42,48,44,39,89,83,67,30.24,30.18,15,2,15,0.00
2013-1-31,64,54,49,52,48,45,89,82,61,30.22,30.12,14,3,14,0.00